Wetterdaten: November 2018
Datum Temp Feuchte Luftdruck Regen Wind W.Richtung SonenZeit UV-Index Solar Windben
01.11.2018 6,6 C 78 % 1010,7 hPa 0,2 l/m 2,4 km/h O-NO 0,00 h 0,5 UV-I 80 W/m 7,6 km/h
02.11.2018 7,7 C 75 % 1023,3 hPa 0,2 l/m 6,5 km/h SW 1,75 h 0,8 UV-I 105 W/m 12,4 km/h
03.11.2018 3,8 C 76 % 1026,8 hPa 0,0 l/m 1,9 km/h SO 7,08 h 0,9 UV-I 198 W/m 8,1 km/h
04.11.2018 7,8 C 84 % 1015,6 hPa 0,0 l/m 5,3 km/h O-SO 0,00 h 0,5 UV-I 69 W/m 12,1 km/h
05.11.2018 9,3 C 86 % 1007,5 hPa 0,0 l/m 2,7 km/h SO 1,58 h 0,6 UV-I 105 W/m 7,2 km/h
06.11.2018 9,4 C 81 % 1007,6 hPa 0,2 l/m 1,0 km/h SO 2,83 h 0,7 UV-I 131 W/m 3,2 km/h
07.11.2018 9,6 C 77 % 1010,9 hPa 1,0 l/m 2,8 km/h SO 7,00 h 0,7 UV-I 189 W/m 6,8 km/h
08.11.2018 6,5 C 83 % 1019,7 hPa 0,2 l/m 1,2 km/h W-SW 2,67 h 0,6 UV-I 105 W/m 2,4 km/h
09.11.2018 9,9 C 82 % 1012,1 hPa 0,2 l/m 5,5 km/h SO 1,92 h 0,5 UV-I 115 W/m 14,1 km/h
10.11.2018 10,0 C 81 % 1005,2 hPa 0,8 l/m 9,3 km/h S-SO 0,00 h 0,0 UV-I 39 W/m 19,7 km/h
11.11.2018 10,7 C 80 % 1009,0 hPa 3,2 l/m 6,1 km/h S-SO 1,42 h 0,7 UV-I 103 W/m 12,5 km/h
12.11.2018 11,4 C 82 % 1014,8 hPa 1,4 l/m 5,5 km/h S-SO 3,75 h 0,7 UV-I 166 W/m 9,6 km/h
13.11.2018 8,9 C 78 % 1023,8 hPa 1,0 l/m 10,6 km/h SW 2,17 h 0,5 UV-I 101 W/m 19,3 km/h
14.11.2018 7,1 C 82 % 1027,5 hPa 0,0 l/m 3,2 km/h SO 5,83 h 0,7 UV-I 172 W/m 10,9 km/h
15.11.2018 3,7 C 87 % 1026,3 hPa 0,0 l/m 7,0 km/h O-SO 0,00 h 0,0 UV-I 67 W/m 18,1 km/h
16.11.2018 4,5 C 78 % 1029,9 hPa 0,0 l/m 6,2 km/h O-SO 6,25 h 0,6 UV-I 165 W/m 14,9 km/h
17.11.2018 2,5 C 73 % 1032,3 hPa 0,0 l/m 6,8 km/h O-NO 6,17 h 0,6 UV-I 165 W/m 20,9 km/h
18.11.2018 1,6 C 67 % 1027,5 hPa 0,0 l/m 8,5 km/h NO 4,08 h 0,5 UV-I 141 W/m 18,5 km/h
19.11.2018 2,0 C 80 % 1017,6 hPa 0,6 l/m 8,9 km/h NO 0,33 h 0,0 UV-I 55 W/m 18,9 km/h
20.11.2018 0,1 C 85 % 1011,1 hPa 0,4 l/m 9,4 km/h O-NO 0,00 h 0,0 UV-I 25 W/m 23,3 km/h
21.11.2018 0,5 C 86 % 1018,3 hPa 2,8 l/m 5,2 km/h O-NO 0,00 h 0,0 UV-I 51 W/m 12,1 km/h
22.11.2018 0,6 C 86 % 1020,3 hPa 0,6 l/m 4,9 km/h O-NO 0,00 h 0,0 UV-I 27 W/m 12,1 km/h
23.11.2018 0,2 C 87 % 1017,1 hPa 0,0 l/m 0,7 km/h O-SO 4,50 h 0,0 UV-I 123 W/m 2,0 km/h
24.11.2018 1,5 C 89 % 1011,2 hPa 1,6 l/m 1,4 km/h SO 0,00 h 0,0 UV-I 36 W/m 5,2 km/h
25.11.2018 3,3 C 90 % 1009,9 hPa 1,0 l/m 3,9 km/h NO 0,00 h 0,0 UV-I 40 W/m 8,4 km/h
26.11.2018 1,9 C 86 % 1012,7 hPa 0,0 l/m 4,6 km/h NO 0,00 h 0,0 UV-I 57 W/m 11,3 km/h
27.11.2018 -0,4 C 79 % 1020,8 hPa 0,0 l/m 2,9 km/h O-NO 3,25 h 0,0 UV-I 93 W/m 8,5 km/h
28.11.2018 1,5 C 80 % 1020,9 hPa 1,8 l/m 8,2 km/h SO 2,08 h 0,0 UV-I 96 W/m 20,1 km/h
29.11.2018 4,4 C 78 % 1013,9 hPa 1,2 l/m 9,8 km/h SO 0,00 h 0,0 UV-I 41 W/m 26,1 km/h
30.11.2018 4,3 C 86 % 1012,0 hPa 0,2 l/m 1,9 km/h S-SO 0,58 h 0,0 UV-I 81 W/m 4,4 km/h
Min-Datum 28.11.18 18.11.18 10.11.18 19 Tage 01.11.18 - - - - 01.11.18
Min-Zeit 00:10 14:30 17:40 - 12:55 - - - - 12:55
Minimum -3,3 C 38 % 1004,4 hPa - 0,0 km/h - - - - 0,0 km/h
Max-Datum 12.11.18 06.11.18 17.11.18 11.11.18 13.11.18 - 03.11.18 03.11.18 12.11.18 20.11.18
Max-Zeit 14:15 08:35 10:40 15:15 14:30 - 15:40 12:50 11:30 04:35
Maximum 16,2 C 91 % 1033,3 hPa 3,2 l/m 22,3 km/h
SW
- 7,00 h 1,2 UV-I 446 W/m 45,1 km/h
O-NO
Durchschnitt 5,0 C 81 % 1017,2 hPa #18,6 l/m 5,1 km/h SO #65:15 h 0,6 UV-I 98 W/m 12,4 km/h

Durchschnitt Minimum Temp.2,4 C
Durchschnitt Maximum Temp.7,9 C